Terminal Aerodrome Forecast
Issued by NWS

Home | Current Version | Previous Version | Text Only | Print | Product List | Glossary On
Versions: 1 2 3 4 5 6 7 8 9 10 11 12 13 14 15 16 17 18 19
000
FTUS44 KLZK 220700 AAA
TAFADF
TAF AMD
KADF 220702Z 2207/2306 00000KT P6SM VCFG SKC
      TEMPO 2208/2210 1SM BR SCT001
     FM221000 00000KT 4SM BR FEW001
      TEMPO 2210/2212 1/2SM FG BKN001
     FM221400 14005KT P6SM SKC
     FM221900 15007KT P6SM SCT035=

USA.gov is the U.S. government's official web portal to all federal, state and local government web resources and services.